Time;durP1;ratioP1;P1;durP2;ratioP2;P2;SDS_P1;SDS_P2;PMS_P1;PMS_P2;Temp;Humidity;BMP_temperature;BMP_pressure;BME280_temperature;BME280_humidity;BME280_pressure;Samples;Min_cycle;Max_cycle;Signal;HPM_P1;HPM_P2
2023/06/26 22:01:57;;;;;;;0.20;0.15;;;;;;;-145.06;0.00;60892.56;5976589;23;20028;-93
2023/06/26 22:04:38;;;;;;;0.47;0.28;;;;;;;-145.06;0.00;60892.56;5952481;23;20440;-93
2023/06/26 22:07:18;;;;;;;0.47;0.30;;;;;;;-145.06;0.00;60892.56;5952811;23;20435;-94
2023/06/26 22:09:57;;;;;;;0.40;0.40;;;;;;;-145.06;0.00;60892.56;5952336;23;20012;-94
2023/06/26 22:12:36;;;;;;;0.22;0.20;;;;;;;-145.06;0.00;60892.56;5952260;23;20380;-94
2023/06/26 22:15:15;;;;;;;0.20;0.20;;;;;;;21.08;0.00;60892.56;5953229;23;20009;-94
2023/06/26 22:18:03;;;;;;;0.43;0.30;;;;;;;-145.06;0.00;60892.56;5952629;23;20009;-93
2023/06/26 22:20:43;;;;;;;1.13;0.30;;;;;;;-145.06;0.00;60892.56;5952035;23;20144;-95
2023/06/26 22:23:31;;;;;;;0.73;0.20;;;;;;;-145.06;0.00;60892.56;5952839;23;20001;-93
2023/06/26 22:26:10;;;;;;;0.30;0.25;;;;;;;19.76;0.00;60892.56;5952432;23;20314;-93
2023/06/26 22:28:50;;;;;;;0.50;0.20;;;;;;;19.70;0.00;60892.56;5951715;23;20009;-93
2023/06/26 22:31:31;;;;;;;0.25;0.20;;;;;;;19.67;0.00;60892.56;5952643;23;20440;-94
2023/06/26 22:34:10;;;;;;;0.22;0.20;;;;;;;19.61;0.00;60892.56;5952258;23;20005;-94
2023/06/26 22:36:49;;;;;;;1.70;0.20;;;;;;;-145.06;0.00;60892.56;5952222;23;20009;-94
2023/06/26 22:39:28;;;;;;;0.52;0.40;;;;;;;21.08;0.00;60892.56;5952282;23;20232;-92
2023/06/26 22:42:07;;;;;;;0.47;0.30;;;;;;;19.47;0.00;60892.56;5951938;23;20309;-93
2023/06/26 22:44:46;;;;;;;0.20;0.20;;;;;;;21.08;0.00;60892.56;5952283;23;20435;-94
2023/06/26 22:47:25;;;;;;;0.60;0.20;;;;;;;-145.06;0.00;60892.56;5952361;23;20527;-93
2023/06/26 22:50:06;;;;;;;0.38;0.30;;;;;;;-145.06;0.00;60892.56;5951955;23;20487;-94
2023/06/26 22:52:45;;;;;;;0.45;0.28;;;;;;;-145.06;0.00;60892.56;5951738;23;20009;-94
2023/06/26 22:55:25;;;;;;;0.73;0.30;;;;;;;-145.06;0.00;60892.56;5952031;23;20005;-93
2023/06/26 22:58:03;;;;;;;0.68;0.20;;;;;;;-145.06;0.00;60892.56;5952566;23;20189;-94
2023/06/26 23:00:43;;;;;;;0.20;0.20;;;;;;;19.28;0.00;60892.56;5945170;23;20010;-94
2023/06/26 23:03:22;;;;;;;0.45;0.30;;;;;;;-145.06;0.00;60892.56;5944550;23;20009;-96
2023/06/26 23:06:03;;;;;;;0.75;0.30;;;;;;;19.25;0.00;60892.56;5944884;23;20009;-94
2023/06/26 23:08:42;;;;;;;0.30;0.30;;;;;;;-145.06;0.00;60892.56;5944334;23;20325;-94
2023/06/26 23:11:21;;;;;;;0.28;0.20;;;;;;;19.45;0.00;60892.56;5943975;23;20069;-93
2023/06/26 23:14:00;;;;;;;0.28;0.28;;;;;;;19.14;0.00;60892.56;5944326;23;20009;-94
2023/06/26 23:16:40;;;;;;;0.93;0.25;;;;;;;-145.06;0.00;60892.56;5944102;23;20703;-92
2023/06/26 23:24:21;;;;;;;0.40;0.30;;;;;;;-145.06;0.00;60892.56;5945907;23;19979;-92
2023/06/26 23:27:00;;;;;;;0.40;0.30;;;;;;;-145.06;0.00;60892.56;5923669;23;20009;-95
2023/06/26 23:29:41;;;;;;;0.50;0.30;;;;;;;-145.06;0.00;60892.56;5922698;23;20321;-93
2023/06/26 23:32:24;;;;;;;1.00;0.30;;;;;;;-145.06;0.00;60892.56;5923528;23;20005;-94
2023/06/26 23:35:05;;;;;;;0.95;0.40;;;;;;;-145.06;0.00;60892.56;5922817;23;20005;-94
2023/06/26 23:37:44;;;;;;;0.50;0.30;;;;;;;19.78;0.00;60892.56;5923491;23;20006;-94
2023/06/26 23:40:23;;;;;;;0.70;0.30;;;;;;;-145.06;0.00;60892.56;5923173;23;20303;-93
2023/06/26 23:43:02;;;;;;;0.30;0.20;;;;;;;-145.06;0.00;60892.56;5923508;23;20237;-94
2023/06/26 23:45:45;;;;;;;0.30;0.30;;;;;;;-145.06;0.00;60892.56;5923385;23;20496;-95
2023/06/26 23:48:24;;;;;;;2.75;0.20;;;;;;;-145.06;0.00;60892.56;5923279;23;20036;-93
2023/06/26 23:51:03;;;;;;;0.40;0.20;;;;;;;-145.06;0.00;60892.56;5923151;23;20010;-94
2023/06/26 23:53:43;;;;;;;0.57;0.40;;;;;;;-145.06;0.00;60892.56;5923821;23;20029;-95
2023/06/26 23:56:22;;;;;;;0.28;0.15;;;;;;;-145.06;0.00;60892.56;5923239;23;20041;-94
2023/06/26 23:59:01;;;;;;;0.50;0.50;;;;;;;-145.06;0.00;60892.56;5923655;23;20009;-95
